createdAt,value
2023-03-10T00:01:52.616Z,98698.03
2023-03-10T00:06:56.700Z,98703.19
2023-03-10T00:12:00.812Z,98700.97
2023-03-10T00:17:06.738Z,98689.56
2023-03-10T00:22:10.768Z,98689.06
2023-03-10T00:27:14.806Z,98681.97
2023-03-10T00:32:20.358Z,98680.06
2023-03-10T00:37:24.764Z,98688.44
2023-03-10T00:42:28.916Z,98682.16
2023-03-10T00:47:34.551Z,98696.53
2023-03-10T00:52:38.597Z,98685.09
2023-03-10T00:57:42.643Z,98688.03
2023-03-10T01:02:48.028Z,98679.97
2023-03-10T01:07:52.126Z,98680.00
2023-03-10T01:12:56.388Z,98668.88
2023-03-10T01:18:03.613Z,98672.44
2023-03-10T01:23:07.688Z,98669.09
2023-03-10T01:28:12.076Z,98661.50
2023-03-10T01:33:18.743Z,98655.03
2023-03-10T01:38:22.834Z,98647.97
2023-03-10T01:43:33.121Z,98628.88
2023-03-10T01:48:39.042Z,98625.94
2023-03-10T01:53:43.342Z,98626.25
2023-03-10T01:58:48.459Z,98636.78
2023-03-10T02:03:58.718Z,98636.44
2023-03-10T02:09:05.646Z,98628.53
2023-03-10T02:14:10.178Z,98617.56
2023-03-10T02:19:28.281Z,98598.59
2023-03-10T02:24:43.372Z,98597.47
2023-03-10T02:29:59.401Z,98584.25
2023-03-10T02:35:07.876Z,98569.69
2023-03-10T02:40:40.750Z,98572.44
2023-03-10T02:45:51.802Z,98567.38
2023-03-10T02:50:57.273Z,98574.16
2023-03-10T02:56:01.889Z,98568.03
2023-03-10T03:01:10.255Z,98555.09
2023-03-10T03:06:17.956Z,98547.97
2023-03-10T03:11:23.062Z,98548.31
2023-03-10T03:16:29.386Z,98542.81
2023-03-10T03:21:37.784Z,98544.09
2023-03-10T03:26:42.003Z,98541.22
2023-03-10T03:31:53.506Z,98535.72
2023-03-10T03:37:01.834Z,98541.00
2023-03-10T03:42:10.937Z,98538.69
2023-03-10T03:47:27.920Z,98541.59
2023-03-10T03:52:33.190Z,98542.06
2023-03-10T03:57:38.426Z,98526.03
2023-03-10T04:02:44.560Z,98518.63
2023-03-10T04:07:49.970Z,98528.56
2023-03-10T04:12:59.211Z,98516.88
2023-03-10T04:18:05.904Z,98514.13
2023-03-10T04:23:19.020Z,98508.78
2023-03-10T04:28:24.922Z,98512.97
2023-03-10T04:33:30.452Z,98514.13
2023-03-10T04:38:34.731Z,98508.47
2023-03-10T04:43:41.351Z,98512.50
2023-03-10T04:48:48.489Z,98503.78
2023-03-10T04:53:53.620Z,98506.66
2023-03-10T04:58:58.246Z,98502.00
2023-03-10T05:04:06.696Z,98503.00
2023-03-10T05:09:12.413Z,98492.59
2023-03-10T05:14:18.157Z,98507.09
2023-03-10T05:19:24.231Z,98501.44
2023-03-10T05:24:30.027Z,98493.19
2023-03-10T05:29:43.667Z,98509.69
2023-03-10T05:35:12.387Z,98505.53
2023-03-10T05:40:25.045Z,98511.53
2023-03-10T05:45:30.173Z,98501.13
2023-03-10T05:50:37.459Z,98504.03
2023-03-10T05:55:48.258Z,98503.19
2023-03-10T06:00:53.818Z,98516.78
2023-03-10T06:06:00.023Z,98517.97
2023-03-10T06:11:04.567Z,98515.94
2023-03-10T06:16:09.211Z,98518.28
2023-03-10T06:21:16.282Z,98518.59
2023-03-10T06:26:20.248Z,98525.03
2023-03-10T06:31:27.094Z,98520.88
2023-03-10T06:36:33.714Z,98525.56
2023-03-10T06:41:39.328Z,98525.03
2023-03-10T06:46:47.467Z,98516.13
2023-03-10T06:51:53.986Z,98520.28
2023-03-10T06:56:58.134Z,98519.53
2023-03-10T07:02:02.189Z,98524.38
2023-03-10T07:07:08.255Z,98520.44
2023-03-10T07:12:15.432Z,98522.50
2023-03-10T07:17:19.962Z,98538.75
2023-03-10T07:22:25.574Z,98525.75
2023-03-10T07:27:30.175Z,98544.13
2023-03-10T07:32:34.756Z,98549.84
2023-03-10T07:37:41.556Z,98546.41
2023-03-10T07:42:49.557Z,98552.63
2023-03-10T07:47:55.786Z,98548.34
2023-03-10T07:53:04.439Z,98543.38
2023-03-10T07:58:14.059Z,98544.72
2023-03-10T08:03:33.302Z,98549.81
2023-03-10T08:08:51.721Z,98555.91
2023-03-10T08:14:11.692Z,98534.81
2023-03-10T08:19:33.371Z,98536.97
2023-03-10T08:24:58.070Z,98545.63
2023-03-10T08:30:02.795Z,98550.63
2023-03-10T08:35:08.520Z,98545.19
2023-03-10T08:40:16.179Z,98540.88
2023-03-10T08:45:20.608Z,98538.94
2023-03-10T08:50:24.753Z,98539.56
2023-03-10T08:55:30.377Z,98541.16
2023-03-10T09:00:34.458Z,98543.56
2023-03-10T09:05:38.942Z,98534.19
2023-03-10T09:10:46.706Z,98541.06
2023-03-10T09:15:51.753Z,98543.94
2023-03-10T09:20:55.897Z,98546.69
2023-03-10T09:26:01.307Z,98542.94
2023-03-10T09:31:06.294Z,98547.78
2023-03-10T09:36:11.011Z,98550.72
2023-03-10T09:41:48.162Z,98559.22
2023-03-10T09:47:20.588Z,98559.75
2023-03-10T09:52:30.622Z,98553.75
2023-03-10T09:57:37.346Z,98570.13
2023-03-10T10:02:45.664Z,98569.38
2023-03-10T10:07:53.844Z,98577.72
2023-03-10T10:13:05.961Z,98575.66
2023-03-10T10:18:20.238Z,98577.88
2023-03-10T10:23:33.729Z,98566.72
2023-03-10T10:28:45.195Z,98570.56
2023-03-10T10:34:01.784Z,98563.41
2023-03-10T10:39:26.873Z,98556.69
2023-03-10T10:44:42.815Z,98557.06
2023-03-10T10:49:46.891Z,98551.44
2023-03-10T10:54:58.897Z,98537.66
2023-03-10T11:00:21.288Z,98532.50
2023-03-10T11:05:33.787Z,98549.91
2023-03-10T11:10:39.244Z,98556.00
2023-03-10T11:15:53.281Z,98550.28
2023-03-10T11:21:07.636Z,98538.84
2023-03-10T11:26:24.380Z,98529.81
2023-03-10T11:31:40.141Z,98521.94
2023-03-10T11:36:56.640Z,98522.13
2023-03-10T11:42:10.549Z,98527.66
2023-03-10T11:47:25.918Z,98528.47
2023-03-10T11:52:32.419Z,98522.41
2023-03-10T11:57:45.138Z,98508.72
2023-03-10T12:03:13.735Z,98511.66
2023-03-10T12:08:19.385Z,98517.44
2023-03-10T12:13:27.061Z,98505.47
2023-03-10T12:18:32.502Z,98502.84
2023-03-10T12:23:43.945Z,98490.38
2023-03-10T12:28:47.940Z,98486.47
2023-03-10T12:33:54.895Z,98494.41
2023-03-10T12:38:59.706Z,98504.63
2023-03-10T12:44:25.398Z,98528.03
2023-03-10T12:49:37.623Z,98540.63
2023-03-10T12:54:53.524Z,98536.50
2023-03-10T13:00:05.014Z,98524.63
2023-03-10T13:05:24.822Z,98543.78
2023-03-10T13:10:33.605Z,98579.66
2023-03-10T13:15:37.781Z,98581.03
2023-03-10T13:20:43.239Z,98595.06
2023-03-10T13:25:54.543Z,98601.16
2023-03-10T13:31:20.113Z,98646.59
2023-03-10T13:36:33.345Z,98691.72
2023-03-10T13:41:43.166Z,98710.41
2023-03-10T13:46:53.188Z,98730.41
2023-03-10T13:52:02.052Z,98787.16
2023-03-10T13:57:14.957Z,98849.22
2023-03-10T14:02:21.771Z,98910.34
2023-03-10T14:07:29.962Z,98935.53
2023-03-10T14:12:39.092Z,98969.94
2023-03-10T14:17:44.622Z,98997.69
2023-03-10T14:22:50.169Z,99038.56
2023-03-10T14:28:00.263Z,99057.16
2023-03-10T14:33:07.596Z,99100.06
2023-03-10T14:38:13.476Z,99131.03
2023-03-10T14:43:20.673Z,99174.63
2023-03-10T14:48:26.987Z,99200.28
2023-03-10T14:53:33.513Z,99208.94
2023-03-10T14:58:46.896Z,99229.88
2023-03-10T15:03:51.066Z,99263.63
2023-03-10T15:08:56.949Z,99313.13
2023-03-10T15:14:01.161Z,99364.69
2023-03-10T15:19:05.283Z,99388.00
2023-03-10T15:24:10.872Z,99449.84
2023-03-10T15:29:16.128Z,99461.31
2023-03-10T15:34:20.786Z,99499.41
2023-03-10T15:39:31.901Z,99510.00
2023-03-10T15:44:36.752Z,99559.56
2023-03-10T15:49:40.826Z,99609.03
2023-03-10T15:54:46.292Z,99613.59
2023-03-10T15:59:50.701Z,99649.56
2023-03-10T16:04:55.019Z,99667.63
2023-03-10T16:10:00.527Z,99691.09
2023-03-10T16:15:05.196Z,99742.25
2023-03-10T16:20:12.253Z,99775.59
2023-03-10T16:25:21.369Z,99786.16
2023-03-10T16:30:25.673Z,99807.97
2023-03-10T16:35:30.435Z,99838.72
2023-03-10T16:40:36.068Z,99846.06
2023-03-10T16:45:40.212Z,99858.47
2023-03-10T16:50:44.517Z,99883.50
2023-03-10T16:55:49.941Z,99921.63
2023-03-10T17:00:54.048Z,99914.06
2023-03-10T17:05:58.106Z,99954.63
2023-03-10T17:11:03.580Z,99979.25
2023-03-10T17:16:13.285Z,99986.94
2023-03-10T17:21:20.475Z,100011.91
2023-03-10T17:26:26.275Z,100031.88
2023-03-10T17:31:32.372Z,100028.53
2023-03-10T17:36:36.547Z,100055.75
2023-03-10T17:41:41.970Z,100072.97
2023-03-10T17:46:46.111Z,100072.19
2023-03-10T17:51:50.168Z,100090.44
2023-03-10T17:56:55.532Z,100104.09
2023-03-10T18:02:00.637Z,100151.03
2023-03-10T18:07:05.069Z,100145.72
2023-03-10T18:12:10.988Z,100189.63
2023-03-10T18:17:14.995Z,100204.25
2023-03-10T18:22:18.990Z,100203.06
2023-03-10T18:27:24.605Z,100211.91
2023-03-10T18:32:30.074Z,100206.13
2023-03-10T18:37:34.673Z,100233.69
2023-03-10T18:42:40.170Z,100244.63
2023-03-10T18:47:46.695Z,100269.84
2023-03-10T18:52:50.918Z,100284.28
2023-03-10T18:57:56.544Z,100285.03
2023-03-10T19:03:00.630Z,100285.91
2023-03-10T19:08:04.977Z,100311.81
2023-03-10T19:13:10.511Z,100311.53
2023-03-10T19:18:14.614Z,100341.22
2023-03-10T19:23:19.228Z,100361.19
2023-03-10T19:28:24.619Z,100366.09
2023-03-10T19:33:28.928Z,100372.63
2023-03-10T19:38:35.171Z,100391.97
2023-03-10T19:43:40.635Z,100400.06
2023-03-10T19:48:45.476Z,100402.78
2023-03-10T19:53:49.885Z,100411.50
2023-03-10T19:58:55.441Z,100422.16
2023-03-10T20:04:04.703Z,100427.44
2023-03-10T20:09:10.549Z,100437.88
2023-03-10T20:14:15.978Z,100443.28
2023-03-10T20:19:22.830Z,100444.66
2023-03-10T20:24:26.969Z,100452.06
2023-03-10T20:29:32.939Z,100444.56
2023-03-10T20:34:37.447Z,100467.38
2023-03-10T20:39:41.512Z,100479.75
2023-03-10T20:44:50.487Z,100489.66
2023-03-10T20:49:55.005Z,100497.38
2023-03-10T20:55:00.598Z,100495.00
2023-03-10T21:00:08.555Z,100501.50
2023-03-10T21:05:13.535Z,100504.41
2023-03-10T21:10:17.920Z,100512.66
2023-03-10T21:15:24.255Z,100510.91
2023-03-10T21:20:28.522Z,100514.59
2023-03-10T21:25:34.802Z,100534.47
2023-03-10T21:30:40.459Z,100559.22
2023-03-10T21:35:44.761Z,100563.44
2023-03-10T21:40:48.939Z,100566.94
2023-03-10T21:45:54.643Z,100570.03
2023-03-10T21:50:58.740Z,100586.69
2023-03-10T21:56:03.130Z,100588.41
2023-03-10T22:01:09.395Z,100607.00
2023-03-10T22:06:13.643Z,100615.25
2023-03-10T22:11:18.116Z,100613.88
2023-03-10T22:16:23.834Z,100627.59
2023-03-10T22:21:27.871Z,100624.72
2023-03-10T22:26:31.865Z,100634.59
2023-03-10T22:31:37.410Z,100640.94
2023-03-10T22:36:41.556Z,100648.50
2023-03-10T22:41:46.030Z,100649.44
2023-03-10T22:46:51.957Z,100663.44
2023-03-10T22:51:56.151Z,100659.97
2023-03-10T22:57:00.214Z,100665.91
2023-03-10T23:02:05.759Z,100670.63
2023-03-10T23:07:09.885Z,100685.31
2023-03-10T23:12:13.956Z,100686.56
2023-03-10T23:17:19.340Z,100697.78
2023-03-10T23:22:24.204Z,100698.47
2023-03-10T23:27:28.220Z,100713.50
2023-03-10T23:32:33.680Z,100719.16
2023-03-10T23:37:38.144Z,100720.22
2023-03-10T23:42:43.736Z,100718.72
2023-03-10T23:47:50.758Z,100729.13
2023-03-10T23:52:55.415Z,100719.34
2023-03-10T23:57:59.971Z,100732.50
